Time;durP1;ratioP1;P1;durP2;ratioP2;P2;SDS_P1;SDS_P2;PMS_P1;PMS_P2;Temp;Humidity;BMP_temperature;BMP_pressure;BME280_temperature;BME280_humidity;BME280_pressure;Samples;Min_cycle;Max_cycle;Signal;HPM_P1;HPM_P2
2023/04/13 00:02:11;;;;;;;13.60;11.63;;;;;;;;;;5053564;28;20032;-61
2023/04/13 00:04:36;;;;;;;14.45;11.77;;;;;;;;;;5035876;28;20067;-61
2023/04/13 00:07:02;;;;;;;14.63;11.65;;;;;;;;;;5053584;28;20405;-61
2023/04/13 00:09:30;;;;;;;15.73;11.38;;;;;;;;;;5053788;28;20079;-61
2023/04/13 00:11:59;;;;;;;14.15;12.55;;;;;;;;;;5032491;28;20088;-61
2023/04/13 00:14:26;;;;;;;14.52;11.52;;;;;;;;;;5032372;28;20030;-62
2023/04/13 00:16:55;;;;;;;15.80;13.52;;;;;;;;;;5033628;28;20667;-62
2023/04/13 00:19:20;;;;;;;15.90;13.07;;;;;;;;;;5033559;28;20357;-62
2023/04/13 00:21:46;;;;;;;15.65;13.10;;;;;;;;;;5033362;28;20041;-62
2023/04/13 00:24:11;;;;;;;14.70;11.82;;;;;;;;;;5033635;28;20025;-62
2023/04/13 00:26:37;;;;;;;14.65;11.23;;;;;;;;;;5033596;28;20434;-56
2023/04/13 00:29:02;;;;;;;12.13;10.85;;;;;;;;;;5033598;28;20088;-56
2023/04/13 00:31:28;;;;;;;13.75;11.77;;;;;;;;;;5033515;28;20376;-56
2023/04/13 00:33:53;;;;;;;13.18;11.43;;;;;;;;;;5033271;28;20605;-56
2023/04/13 00:36:20;;;;;;;13.40;11.68;;;;;;;;;;5033164;28;20030;-56
2023/04/13 00:38:46;;;;;;;14.65;11.50;;;;;;;;;;5033319;28;20029;-56
2023/04/13 00:41:12;;;;;;;14.57;11.77;;;;;;;;;;5032045;28;20024;-56
2023/04/13 00:43:37;;;;;;;15.25;12.27;;;;;;;;;;5031821;28;20023;-56
2023/04/13 00:46:04;;;;;;;15.10;12.65;;;;;;;;;;5033453;28;20025;-56
2023/04/13 00:48:29;;;;;;;15.25;12.35;;;;;;;;;;5031791;28;20033;-56
2023/04/13 00:50:54;;;;;;;14.52;13.02;;;;;;;;;;5033287;28;20079;-61
2023/04/13 00:53:21;;;;;;;25.63;18.20;;;;;;;;;;5033225;28;20475;-56
2023/04/13 00:55:47;;;;;;;17.52;15.13;;;;;;;;;;5033018;28;20034;-61
2023/04/13 00:58:12;;;;;;;15.55;13.35;;;;;;;;;;5031616;28;20064;-62
2023/04/13 01:00:38;;;;;;;13.57;12.18;;;;;;;;;;5015208;28;20692;-62
2023/04/13 01:03:06;;;;;;;13.60;11.20;;;;;;;;;;5031627;28;20399;-61
2023/04/13 01:05:39;;;;;;;15.02;11.40;;;;;;;;;;5032787;28;20029;-61
2023/04/13 01:08:07;;;;;;;11.88;10.52;;;;;;;;;;5031547;28;20037;-62
2023/04/13 01:10:41;;;;;;;12.15;10.70;;;;;;;;;;5032791;28;20145;-62
2023/04/13 01:13:09;;;;;;;11.85;10.52;;;;;;;;;;5034833;28;20115;-56
2023/04/13 01:15:38;;;;;;;12.75;10.43;;;;;;;;;;5034742;28;20045;-56
2023/04/13 01:18:07;;;;;;;10.70;9.50;;;;;;;;;;5034611;28;20051;-56
2023/04/13 01:20:35;;;;;;;11.05;9.85;;;;;;;;;;5034626;28;20028;-56
2023/04/13 01:23:08;;;;;;;11.43;9.98;;;;;;;;;;5033320;28;20049;-56
2023/04/13 01:25:44;;;;;;;10.85;9.00;;;;;;;;;;5031282;28;20025;-59
2023/04/13 01:28:16;;;;;;;10.90;9.60;;;;;;;;;;5031400;28;20030;-59
2023/04/13 01:30:43;;;;;;;12.50;9.95;;;;;;;;;;5031369;28;20037;-59
2023/04/13 01:33:09;;;;;;;12.45;10.45;;;;;;;;;;5031211;28;20387;-59
2023/04/13 01:35:36;;;;;;;12.90;10.15;;;;;;;;;;5030858;28;20034;-59
2023/04/13 01:38:02;;;;;;;13.27;11.20;;;;;;;;;;5031065;28;20108;-59
2023/04/13 01:40:29;;;;;;;14.38;11.93;;;;;;;;;;5030879;28;20116;-64
2023/04/13 01:42:56;;;;;;;14.77;11.68;;;;;;;;;;5014722;28;20071;-64
2023/04/13 01:45:26;;;;;;;15.15;11.45;;;;;;;;;;5032507;28;20037;-61
2023/04/13 01:47:58;;;;;;;13.55;11.20;;;;;;;;;;5031165;28;20026;-56
2023/04/13 01:50:44;;;;;;;12.80;10.77;;;;;;;;;;5031294;28;20045;-56
2023/04/13 01:53:36;;;;;;;11.45;10.27;;;;;;;;;;5032559;28;20114;-56
2023/04/13 01:56:03;;;;;;;12.93;10.40;;;;;;;;;;5031011;28;20060;-55
2023/04/13 01:58:32;;;;;;;14.25;10.88;;;;;;;;;;5030776;28;20022;-61
2023/04/13 02:00:59;;;;;;;11.93;9.98;;;;;;;;;;5030916;28;20028;-61
2023/04/13 02:03:25;;;;;;;12.35;10.50;;;;;;;;;;5032670;28;20475;-61
2023/04/13 02:05:51;;;;;;;11.20;10.00;;;;;;;;;;5034605;28;20033;-61
2023/04/13 02:08:19;;;;;;;11.00;9.90;;;;;;;;;;5034517;28;20079;-61
2023/04/13 02:10:46;;;;;;;10.97;9.80;;;;;;;;;;5034411;28;20574;-61
2023/04/13 02:13:12;;;;;;;10.70;9.55;;;;;;;;;;5019042;28;20350;-61
2023/04/13 02:15:37;;;;;;;11.70;9.95;;;;;;;;;;5017808;28;20021;-61
2023/04/13 02:18:04;;;;;;;12.18;10.10;;;;;;;;;;5017806;28;20399;-61
2023/04/13 02:20:32;;;;;;;11.48;9.38;;;;;;;;;;5035506;28;20108;-61
2023/04/13 02:22:59;;;;;;;10.65;9.52;;;;;;;;;;5017759;28;20518;-61
2023/04/13 02:25:26;;;;;;;12.07;10.27;;;;;;;;;;5035630;28;20037;-61
2023/04/13 02:27:52;;;;;;;13.63;10.48;;;;;;;;;;5035596;28;20044;-61
2023/04/13 02:30:18;;;;;;;10.32;9.27;;;;;;;;;;5018180;28;20037;-61
2023/04/13 02:32:46;;;;;;;11.23;9.55;;;;;;;;;;5017850;28;20056;-61
2023/04/13 02:35:11;;;;;;;10.73;9.63;;;;;;;;;;5017743;28;20458;-61
2023/04/13 02:37:39;;;;;;;10.52;9.18;;;;;;;;;;5017824;28;20117;-61
2023/04/13 02:40:09;;;;;;;10.52;9.43;;;;;;;;;;5017367;28;20060;-61
2023/04/13 02:42:35;;;;;;;10.50;9.40;;;;;;;;;;5035272;28;20430;-61
2023/04/13 02:45:00;;;;;;;9.85;8.85;;;;;;;;;;5017532;28;20029;-61
2023/04/13 02:47:26;;;;;;;11.20;9.88;;;;;;;;;;5017378;28;20090;-61
2023/04/13 02:49:52;;;;;;;11.90;9.23;;;;;;;;;;5017506;28;20367;-61
2023/04/13 02:52:26;;;;;;;9.70;8.65;;;;;;;;;;5017424;28;20079;-61
2023/04/13 02:55:00;;;;;;;11.63;9.40;;;;;;;;;;5035075;28;20395;-61
2023/04/13 02:57:30;;;;;;;11.50;9.32;;;;;;;;;;5001606;28;20544;-61
2023/04/13 02:59:58;;;;;;;9.85;8.80;;;;;;;;;;5017232;28;20045;-61
2023/04/13 03:02:28;;;;;;;11.10;9.82;;;;;;;;;;5017211;28;20025;-61
2023/04/13 03:04:54;;;;;;;12.20;10.55;;;;;;;;;;4984985;28;20023;-61
2023/04/13 03:07:21;;;;;;;12.95;11.60;;;;;;;;;;5017091;28;20107;-61
2023/04/13 03:09:51;;;;;;;12.68;10.60;;;;;;;;;;5017299;28;20448;-61
2023/04/13 03:12:18;;;;;;;12.93;10.77;;;;;;;;;;5024564;28;20017;-61
2023/04/13 03:14:45;;;;;;;13.48;11.60;;;;;;;;;;5032230;28;20034;-61
2023/04/13 03:17:11;;;;;;;14.27;11.05;;;;;;;;;;5033334;28;20048;-61
2023/04/13 03:19:38;;;;;;;13.85;11.18;;;;;;;;;;5033344;28;20033;-61
2023/04/13 03:22:04;;;;;;;19.38;13.77;;;;;;;;;;5033039;28;20042;-61
2023/04/13 03:24:33;;;;;;;25.30;17.58;;;;;;;;;;5033063;28;20033;-61
2023/04/13 03:27:03;;;;;;;33.20;23.58;;;;;;;;;;5033152;28;20033;-61
2023/04/13 03:29:37;;;;;;;37.50;26.52;;;;;;;;;;5034435;28;20413;-61
2023/04/13 03:32:02;;;;;;;33.80;23.35;;;;;;;;;;5016525;28;20060;-61
2023/04/13 03:34:31;;;;;;;17.08;12.85;;;;;;;;;;5033000;28;20037;-61
2023/04/13 03:36:59;;;;;;;15.10;11.38;;;;;;;;;;5032592;28;20029;-61
2023/04/13 03:39:25;;;;;;;14.75;11.00;;;;;;;;;;5032865;28;20083;-61
2023/04/13 03:41:51;;;;;;;13.85;10.65;;;;;;;;;;5032516;28;20112;-61
2023/04/13 03:44:16;;;;;;;12.77;9.48;;;;;;;;;;5016565;28;20112;-61
2023/04/13 03:46:43;;;;;;;12.70;10.02;;;;;;;;;;5016443;28;20033;-61
2023/04/13 03:49:19;;;;;;;16.55;11.13;;;;;;;;;;5017701;28;20128;-61
2023/04/13 03:51:45;;;;;;;16.33;11.02;;;;;;;;;;5032554;28;20431;-61
2023/04/13 03:54:11;;;;;;;15.07;11.48;;;;;;;;;;5032489;28;20029;-61
2023/04/13 03:56:37;;;;;;;16.20;11.10;;;;;;;;;;5032060;28;20383;-62
2023/04/13 03:59:03;;;;;;;20.10;12.23;;;;;;;;;;5032654;28;20033;-62
2023/04/13 04:01:29;;;;;;;20.42;14.35;;;;;;;;;;5015760;28;20033;-61
2023/04/13 04:03:56;;;;;;;23.42;16.55;;;;;;;;;;5032515;28;20116;-61
2023/04/13 04:06:23;;;;;;;24.35;16.45;;;;;;;;;;5032368;28;20361;-61
2023/04/13 04:08:56;;;;;;;20.60;13.55;;;;;;;;;;5015412;28;20044;-61
2023/04/13 04:11:30;;;;;;;16.05;11.40;;;;;;;;;;5031828;28;20088;-61
2023/04/13 04:13:55;;;;;;;16.75;10.57;;;;;;;;;;5033350;28;20088;-61
2023/04/13 04:16:22;;;;;;;13.65;10.45;;;;;;;;;;5015801;28;20395;-62
2023/04/13 04:18:53;;;;;;;14.07;10.02;;;;;;;;;;5015901;28;20396;-61
2023/04/13 04:21:20;;;;;;;13.63;10.63;;;;;;;;;;5016211;28;20037;-60
2023/04/13 04:23:46;;;;;;;14.05;10.82;;;;;;;;;;5016273;28;20418;-61
2023/04/13 04:26:14;;;;;;;12.93;11.00;;;;;;;;;;5020438;28;20021;-62
2023/04/13 04:29:00;;;;;;;18.70;12.18;;;;;;;;;;5033179;28;20026;-62
2023/04/13 04:31:30;;;;;;;15.85;11.13;;;;;;;;;;5034701;28;20052;-61
2023/04/13 04:33:56;;;;;;;;;;;;;;;;;;5001356;28;20057;-61
2023/04/13 04:36:23;;;;;;;13.57;10.75;;;;;;;;;;5032750;28;20381;-61
2023/04/13 04:39:01;;;;;;;11.00;9.48;;;;;;;;;;5034132;28;20426;-61
2023/04/13 04:41:29;;;;;;;12.60;9.65;;;;;;;;;;5032788;28;20021;-61
2023/04/13 04:44:01;;;;;;;12.75;9.82;;;;;;;;;;5033006;28;20104;-61
2023/04/13 04:46:30;;;;;;;11.25;9.73;;;;;;;;;;5032746;28;20427;-61
2023/04/13 04:49:01;;;;;;;13.05;9.35;;;;;;;;;;5032834;28;20025;-61
2023/04/13 04:51:28;;;;;;;11.60;8.50;;;;;;;;;;5032490;28;20033;-61
2023/04/13 04:53:56;;;;;;;12.00;9.35;;;;;;;;;;5032773;28;20044;-61
2023/04/13 04:56:22;;;;;;;47.33;31.27;;;;;;;;;;5032524;28;20048;-55
2023/04/13 04:58:50;;;;;;;44.88;34.88;;;;;;;;;;5032310;28;20040;-55
2023/04/13 05:01:25;;;;;;;44.33;34.65;;;;;;;;;;5032191;28;20029;-55
2023/04/13 05:03:53;;;;;;;31.88;27.75;;;;;;;;;;5031803;28;20521;-55
2023/04/13 05:06:32;;;;;;;61.83;46.60;;;;;;;;;;5032176;28;20119;-55
2023/04/13 05:09:00;;;;;;;64.10;55.30;;;;;;;;;;5032126;28;20033;-54
2023/04/13 05:11:27;;;;;;;20.48;17.15;;;;;;;;;;5031973;28;20061;-55
2023/04/13 05:13:55;;;;;;;13.82;12.25;;;;;;;;;;5031995;28;20029;-53
2023/04/13 05:16:23;;;;;;;18.95;12.48;;;;;;;;;;5031288;28;20036;-53
2023/04/13 05:18:50;;;;;;;10.18;8.55;;;;;;;;;;5030717;28;20029;-53
2023/04/13 05:21:35;;;;;;;14.77;9.20;;;;;;;;;;5042078;28;20067;-53
2023/04/13 05:24:01;;;;;;;11.32;9.68;;;;;;;;;;5014050;28;20124;-53
2023/04/13 05:26:27;;;;;;;15.55;10.48;;;;;;;;;;5030708;28;20221;-53
2023/04/13 05:28:53;;;;;;;14.48;9.55;;;;;;;;;;5031701;28;20087;-60
2023/04/13 05:31:22;;;;;;;11.25;9.00;;;;;;;;;;5031520;28;20036;-53
2023/04/13 05:33:48;;;;;;;20.23;16.67;;;;;;;;;;5031698;28;20033;-53
2023/04/13 05:36:15;;;;;;;13.50;10.48;;;;;;;;;;5033159;28;20050;-53
2023/04/13 05:38:42;;;;;;;10.32;7.43;;;;;;;;;;5017978;28;20022;-53
2023/04/13 05:41:09;;;;;;;9.40;8.07;;;;;;;;;;5035948;28;20029;-53
2023/04/13 05:43:35;;;;;;;12.63;10.82;;;;;;;;;;5034964;28;20556;-53
2023/04/13 05:46:01;;;;;;;36.42;27.17;;;;;;;;;;5034658;28;20042;-53
2023/04/13 05:48:27;;;;;;;14.82;11.30;;;;;;;;;;5017897;28;20029;-53
2023/04/13 05:50:57;;;;;;;25.13;18.73;;;;;;;;;;5033998;28;20038;-53
2023/04/13 05:53:24;;;;;;;12.48;9.20;;;;;;;;;;5017420;28;20029;-53
2023/04/13 05:55:53;;;;;;;17.30;11.00;;;;;;;;;;5033799;28;20068;-53
2023/04/13 05:58:19;;;;;;;19.00;13.23;;;;;;;;;;5033893;28;20423;-53
2023/04/13 06:00:46;;;;;;;14.30;10.88;;;;;;;;;;5034636;28;20033;-53
2023/04/13 06:03:21;;;;;;;11.77;8.45;;;;;;;;;;5018731;28;20021;-53
2023/04/13 06:05:47;;;;;;;11.30;8.15;;;;;;;;;;5035160;28;20029;-53
2023/04/13 06:08:13;;;;;;;8.60;6.22;;;;;;;;;;5035386;28;20025;-53
2023/04/13 06:10:38;;;;;;;7.38;5.72;;;;;;;;;;5035520;28;20040;-53
2023/04/13 06:13:04;;;;;;;6.97;5.30;;;;;;;;;;5036377;28;20034;-53
2023/04/13 06:15:30;;;;;;;8.68;6.55;;;;;;;;;;5036236;28;20037;-53
2023/04/13 06:17:55;;;;;;;7.03;6.13;;;;;;;;;;5036299;28;20040;-53
2023/04/13 06:20:21;;;;;;;7.45;5.18;;;;;;;;;;5034869;28;20057;-53
2023/04/13 06:22:47;;;;;;;6.18;5.40;;;;;;;;;;5034770;28;20570;-53
2023/04/13 06:25:14;;;;;;;7.63;5.82;;;;;;;;;;5034898;28;20445;-53
2023/04/13 06:27:42;;;;;;;6.70;5.07;;;;;;;;;;5034840;28;20030;-53
2023/04/13 06:30:09;;;;;;;7.03;5.60;;;;;;;;;;5034741;28;20029;-53
2023/04/13 06:32:34;;;;;;;7.68;5.68;;;;;;;;;;5034681;28;20099;-53
2023/04/13 06:35:02;;;;;;;7.32;5.70;;;;;;;;;;5034887;28;20494;-53
2023/04/13 06:37:33;;;;;;;6.03;5.13;;;;;;;;;;5034719;28;20025;-53
2023/04/13 06:40:04;;;;;;;11.65;7.05;;;;;;;;;;5034575;28;20032;-53
2023/04/13 06:42:30;;;;;;;10.60;7.05;;;;;;;;;;5034530;28;20025;-53
2023/04/13 06:45:21;;;;;;;7.43;5.45;;;;;;;;;;5035695;28;20048;-53
2023/04/13 06:47:46;;;;;;;7.70;5.13;;;;;;;;;;5034468;28;20041;-53
2023/04/13 06:50:14;;;;;;;12.05;6.43;;;;;;;;;;5034180;28;20483;-53
2023/04/13 06:52:44;;;;;;;8.23;5.50;;;;;;;;;;5034279;28;20505;-53
2023/04/13 06:55:10;;;;;;;7.25;5.65;;;;;;;;;;5034224;28;20026;-53
2023/04/13 06:57:38;;;;;;;7.00;5.30;;;;;;;;;;5034290;28;20382;-53
2023/04/13 07:00:06;;;;;;;5.90;4.63;;;;;;;;;;5033994;28;20057;-53
2023/04/13 07:02:31;;;;;;;7.78;4.68;;;;;;;;;;5017679;28;20033;-53
2023/04/13 07:04:58;;;;;;;6.35;4.72;;;;;;;;;;5034209;28;20079;-53
2023/04/13 07:07:24;;;;;;;5.38;4.50;;;;;;;;;;5034027;28;20021;-53
2023/04/13 07:09:50;;;;;;;5.57;4.57;;;;;;;;;;5017482;28;20172;-53
2023/04/13 07:12:15;;;;;;;8.77;4.55;;;;;;;;;;5033950;28;20025;-53
2023/04/13 07:14:42;;;;;;;8.68;4.95;;;;;;;;;;5033968;28;20017;-53
2023/04/13 07:17:10;;;;;;;4.88;4.07;;;;;;;;;;5033597;28;20025;-53
2023/04/13 07:19:36;;;;;;;5.00;4.22;;;;;;;;;;5033833;28;20468;-53
2023/04/13 07:22:03;;;;;;;5.50;4.00;;;;;;;;;;5035020;28;20037;-53
2023/04/13 07:24:32;;;;;;;4.55;3.80;;;;;;;;;;5033645;28;20432;-53
2023/04/13 07:27:00;;;;;;;6.35;4.15;;;;;;;;;;5033853;28;20467;-53
2023/04/13 07:29:26;;;;;;;6.85;4.28;;;;;;;;;;5033642;28;20026;-53
2023/04/13 07:32:00;;;;;;;5.22;3.97;;;;;;;;;;5033734;28;20124;-53
2023/04/13 07:34:26;;;;;;;7.72;4.10;;;;;;;;;;5017165;28;20029;-53
2023/04/13 07:36:52;;;;;;;6.45;3.70;;;;;;;;;;5033415;28;20028;-53
2023/04/13 07:39:19;;;;;;;6.18;3.88;;;;;;;;;;5033546;28;20039;-53
2023/04/13 07:41:47;;;;;;;5.57;3.70;;;;;;;;;;5033328;28;20025;-53
2023/04/13 07:44:17;;;;;;;5.63;3.42;;;;;;;;;;5016872;28;20120;-53
2023/04/13 07:46:43;;;;;;;3.65;3.15;;;;;;;;;;5034712;28;20057;-53
2023/04/13 07:49:08;;;;;;;3.92;2.65;;;;;;;;;;5033463;28;20057;-52
2023/04/13 07:51:35;;;;;;;3.50;2.75;;;;;;;;;;5033257;28;20447;-53
2023/04/13 07:54:01;;;;;;;2.92;2.67;;;;;;;;;;5033309;28;20045;-53
2023/04/13 07:56:32;;;;;;;4.05;2.30;;;;;;;;;;5016624;28;20109;-53
2023/04/13 07:58:59;;;;;;;3.53;2.78;;;;;;;;;;5033214;28;20044;-53
2023/04/13 08:01:25;;;;;;;3.53;2.90;;;;;;;;;;5016105;28;20013;-53
2023/04/13 08:03:50;;;;;;;3.13;2.58;;;;;;;;;;5032967;28;20032;-53
2023/04/13 08:06:20;;;;;;;3.88;2.47;;;;;;;;;;5033026;28;20464;-53
2023/04/13 08:08:51;;;;;;;3.90;2.97;;;;;;;;;;5034480;28;20026;-53
2023/04/13 08:11:18;;;;;;;3.20;2.85;;;;;;;;;;5016494;28;20072;-53
2023/04/13 08:13:44;;;;;;;3.78;2.60;;;;;;;;;;5032872;28;20045;-53
2023/04/13 08:16:11;;;;;;;3.10;2.55;;;;;;;;;;5032807;28;20128;-53
2023/04/13 08:18:41;;;;;;;2.85;2.42;;;;;;;;;;5032840;28;20425;-53
2023/04/13 08:21:09;;;;;;;5.00;2.72;;;;;;;;;;5032546;28;20089;-53
2023/04/13 08:23:45;;;;;;;3.30;2.60;;;;;;;;;;5028471;23;20053;-53
2023/04/13 08:26:18;;;;;;;3.75;2.40;;;;;;;;;;5058820;23;20053;-53
2023/04/13 08:29:10;;;;;;;3.10;2.47;;;;;;;;;;5055387;23;20061;-53
2023/04/13 08:31:35;;;;;;;3.40;2.47;;;;;;;;;;5076604;22;20063;-59
2023/04/13 08:34:19;;;;;;;2.67;2.42;;;;;;;;;;5034710;23;20148;-58
2023/04/13 08:37:18;;;;;;;3.25;2.30;;;;;;;;;;5014976;23;20069;-53
2023/04/13 08:39:45;;;;;;;3.95;2.45;;;;;;;;;;4972010;28;20560;-59
2023/04/13 08:42:12;;;;;;;2.80;2.05;;;;;;;;;;4973700;28;20037;-59
2023/04/13 08:44:38;;;;;;;3.50;2.40;;;;;;;;;;4974008;28;20109;-59
2023/04/13 08:47:05;;;;;;;4.55;2.78;;;;;;;;;;4957821;28;20100;-59
2023/04/13 08:49:33;;;;;;;5.78;2.22;;;;;;;;;;4957475;28;20482;-59
2023/04/13 08:52:05;;;;;;;4.00;2.40;;;;;;;;;;4974789;28;20111;-59
2023/04/13 08:54:31;;;;;;;4.63;2.20;;;;;;;;;;4974729;28;20034;-59
2023/04/13 08:56:58;;;;;;;4.72;2.30;;;;;;;;;;4957372;28;20117;-59
2023/04/13 08:59:26;;;;;;;3.17;2.60;;;;;;;;;;4973460;28;20023;-59
2023/04/13 09:01:52;;;;;;;2.17;1.80;;;;;;;;;;4974572;28;20023;-59
2023/04/13 09:04:19;;;;;;;3.78;2.13;;;;;;;;;;4957326;28;20500;-59
2023/04/13 09:06:49;;;;;;;4.55;2.13;;;;;;;;;;4973361;28;20548;-59
2023/04/13 09:09:17;;;;;;;5.33;2.40;;;;;;;;;;4957343;28;20035;-59
2023/04/13 09:11:44;;;;;;;4.65;2.30;;;;;;;;;;4972948;28;20050;-59
2023/04/13 09:14:10;;;;;;;2.17;1.92;;;;;;;;;;4972817;28;20038;-59
2023/04/13 09:16:39;;;;;;;3.05;1.75;;;;;;;;;;4973174;28;20216;-59
2023/04/13 09:19:08;;;;;;;2.00;1.80;;;;;;;;;;4957277;28;20021;-59
2023/04/13 09:21:43;;;;;;;2.08;1.90;;;;;;;;;;4957228;28;20110;-59
2023/04/13 09:24:09;;;;;;;2.33;2.13;;;;;;;;;;4974449;28;20481;-59
2023/04/13 09:26:38;;;;;;;2.10;1.90;;;;;;;;;;4974442;28;20549;-59
2023/04/13 09:29:04;;;;;;;2.15;1.75;;;;;;;;;;4974410;28;20106;-60
2023/04/13 09:31:32;;;;;;;2.63;1.70;;;;;;;;;;4974358;28;20478;-60
2023/04/13 09:33:57;;;;;;;2.92;2.03;;;;;;;;;;4974382;28;20097;-59
2023/04/13 09:36:24;;;;;;;2.22;1.70;;;;;;;;;;4974338;28;20027;-59
2023/04/13 09:38:54;;;;;;;2.80;1.95;;;;;;;;;;4972929;28;20126;-59
2023/04/13 09:41:36;;;;;;;2.47;1.70;;;;;;;;;;4973132;28;20030;-59
2023/04/13 09:44:02;;;;;;;2.95;2.13;;;;;;;;;;4973062;28;20033;-59
2023/04/13 09:46:27;;;;;;;2.00;1.80;;;;;;;;;;4974323;28;20026;-59
2023/04/13 09:49:11;;;;;;;3.50;2.33;;;;;;;;;;4974151;28;20537;-53
2023/04/13 09:51:37;;;;;;;2.63;2.00;;;;;;;;;;4974247;28;20046;-53
2023/04/13 09:54:04;;;;;;;4.57;2.47;;;;;;;;;;4974342;28;20035;-53
2023/04/13 09:56:31;;;;;;;1.58;1.48;;;;;;;;;;4989186;28;20031;-53
2023/04/13 09:58:56;;;;;;;3.00;1.90;;;;;;;;;;4974279;28;20039;-53
2023/04/13 10:01:22;;;;;;;2.70;1.70;;;;;;;;;;4972898;28;20031;-53
2023/04/13 10:03:48;;;;;;;1.75;1.65;;;;;;;;;;4974105;28;20046;-53
2023/04/13 10:06:14;;;;;;;2.42;1.65;;;;;;;;;;4974066;28;20054;-53
2023/04/13 10:08:41;;;;;;;2.22;2.00;;;;;;;;;;4974143;28;20492;-53
2023/04/13 10:11:09;;;;;;;3.97;2.13;;;;;;;;;;4974011;28;20539;-53
2023/04/13 10:13:36;;;;;;;1.90;1.65;;;;;;;;;;4974027;28;20035;-53
2023/04/13 10:16:02;;;;;;;4.40;1.67;;;;;;;;;;4974054;28;20125;-53
2023/04/13 10:18:33;;;;;;;3.03;1.60;;;;;;;;;;4974020;28;20105;-53
2023/04/13 10:20:58;;;;;;;2.97;1.70;;;;;;;;;;4974064;28;20133;-53
2023/04/13 10:23:26;;;;;;;3.10;1.83;;;;;;;;;;4974262;28;20477;-53
2023/04/13 10:25:52;;;;;;;2.33;1.75;;;;;;;;;;4992455;28;20058;-53
2023/04/13 10:28:18;;;;;;;2.42;1.60;;;;;;;;;;4977493;28;20054;-53
2023/04/13 10:30:50;;;;;;;3.42;1.90;;;;;;;;;;4977317;28;20047;-53
2023/04/13 10:33:15;;;;;;;1.77;1.67;;;;;;;;;;4977405;28;20388;-53
2023/04/13 10:35:40;;;;;;;2.42;1.73;;;;;;;;;;4977191;28;20470;-53
2023/04/13 10:38:07;;;;;;;2.97;2.05;;;;;;;;;;4992077;28;20098;-53
2023/04/13 10:40:46;;;;;;;3.22;2.00;;;;;;;;;;4975909;28;20417;-53
2023/04/13 10:43:11;;;;;;;2.05;1.83;;;;;;;;;;4977104;28;20038;-53
2023/04/13 10:45:37;;;;;;;1.45;1.35;;;;;;;;;;4977114;28;20037;-53
2023/04/13 10:48:02;;;;;;;2.03;1.73;;;;;;;;;;4977068;28;20122;-53
2023/04/13 10:50:27;;;;;;;2.17;1.83;;;;;;;;;;4975799;28;20062;-53
2023/04/13 10:53:03;;;;;;;2.55;1.92;;;;;;;;;;4976919;28;20085;-53
2023/04/13 10:55:29;;;;;;;1.85;1.45;;;;;;;;;;4976798;28;20031;-53
2023/04/13 10:57:58;;;;;;;2.10;1.65;;;;;;;;;;4976898;28;20023;-53
2023/04/13 11:00:24;;;;;;;1.77;1.67;;;;;;;;;;4976840;28;20465;-53
2023/04/13 11:02:51;;;;;;;3.15;2.10;;;;;;;;;;4976758;28;20461;-53
2023/04/13 11:05:18;;;;;;;6.63;2.50;;;;;;;;;;4976789;28;20082;-53
2023/04/13 11:07:47;;;;;;;5.47;2.40;;;;;;;;;;4976684;28;20473;-53
2023/04/13 11:10:17;;;;;;;4.57;2.20;;;;;;;;;;4976609;28;20469;-53
2023/04/13 11:12:52;;;;;;;1.90;1.70;;;;;;;;;;4976521;28;20027;-53
2023/04/13 11:15:23;;;;;;;3.03;2.25;;;;;;;;;;4976578;28;20037;-53
2023/04/13 11:17:56;;;;;;;2.47;1.70;;;;;;;;;;4976435;28;20465;-53
2023/04/13 11:20:35;;;;;;;4.25;2.13;;;;;;;;;;4976467;28;20022;-53
2023/04/13 11:23:05;;;;;;;3.95;2.15;;;;;;;;;;4976416;28;20031;-53
2023/04/13 11:25:31;;;;;;;3.72;2.03;;;;;;;;;;4976453;28;20654;-53
2023/04/13 11:28:00;;;;;;;3.65;2.33;;;;;;;;;;4976423;28;20062;-53
2023/04/13 11:30:25;;;;;;;3.58;2.30;;;;;;;;;;4976380;28;20035;-53
2023/04/13 11:32:52;;;;;;;2.97;2.17;;;;;;;;;;4976486;28;20053;-53
2023/04/13 11:35:18;;;;;;;5.10;1.55;;;;;;;;;;4975238;28;20038;-53
2023/04/13 11:37:47;;;;;;;1.90;1.52;;;;;;;;;;4981964;28;20038;-53
2023/04/13 11:40:16;;;;;;;4.97;2.38;;;;;;;;;;4995428;28;20022;-53
2023/04/13 11:42:42;;;;;;;4.63;1.98;;;;;;;;;;4995509;28;20031;-53
2023/04/13 11:45:07;;;;;;;2.45;1.92;;;;;;;;;;4995401;28;20027;-53
2023/04/13 11:47:33;;;;;;;3.28;1.65;;;;;;;;;;4995349;28;20492;-53
2023/04/13 11:49:58;;;;;;;3.92;2.60;;;;;;;;;;4995339;28;20128;-53
2023/04/13 11:52:24;;;;;;;3.33;2.25;;;;;;;;;;4995254;28;20081;-53
2023/04/13 11:54:50;;;;;;;1.90;1.58;;;;;;;;;;4995269;28;20026;-53
2023/04/13 11:57:17;;;;;;;2.00;1.73;;;;;;;;;;4995148;28;20397;-53
2023/04/13 11:59:43;;;;;;;3.63;1.95;;;;;;;;;;4995144;28;20109;-53
2023/04/13 12:02:08;;;;;;;1.90;1.70;;;;;;;;;;4995067;28;20030;-53
2023/04/13 12:04:40;;;;;;;1.75;1.58;;;;;;;;;;4994997;28;20088;-53
2023/04/13 12:07:12;;;;;;;1.70;1.60;;;;;;;;;;4995021;28;20484;-53
2023/04/13 12:09:42;;;;;;;3.72;1.40;;;;;;;;;;4994983;28;20041;-53
2023/04/13 12:12:13;;;;;;;2.67;1.45;;;;;;;;;;4994940;28;20038;-53
2023/04/13 12:14:38;;;;;;;3.00;1.52;;;;;;;;;;4994875;28;20033;-53
2023/04/13 12:17:04;;;;;;;2.72;1.42;;;;;;;;;;4977404;28;20072;-53
2023/04/13 12:19:29;;;;;;;2.10;1.30;;;;;;;;;;4994724;28;20030;-53
2023/04/13 12:21:55;;;;;;;2.28;1.42;;;;;;;;;;4995071;28;20034;-53
2023/04/13 12:24:30;;;;;;;2.90;2.00;;;;;;;;;;4994678;28;20037;-53
2023/04/13 12:26:55;;;;;;;2.13;1.45;;;;;;;;;;4994638;28;20030;-53
2023/04/13 12:29:21;;;;;;;2.33;1.60;;;;;;;;;;4994615;28;20033;-53
2023/04/13 12:31:46;;;;;;;1.50;1.40;;;;;;;;;;4994559;28;20034;-53
2023/04/13 12:34:11;;;;;;;1.95;1.50;;;;;;;;;;4994482;28;20026;-53
2023/04/13 12:36:37;;;;;;;2.60;1.63;;;;;;;;;;4994427;28;20030;-53
2023/04/13 12:39:05;;;;;;;1.60;1.50;;;;;;;;;;4994291;28;20093;-53
2023/04/13 12:41:31;;;;;;;1.63;1.52;;;;;;;;;;4994333;28;20022;-53
2023/04/13 12:43:57;;;;;;;4.28;1.23;;;;;;;;;;4994396;28;20037;-53
2023/04/13 12:46:23;;;;;;;1.50;1.35;;;;;;;;;;4992880;28;20393;-53
2023/04/13 12:48:49;;;;;;;1.55;1.40;;;;;;;;;;4992978;28;20125;-53
2023/04/13 12:51:14;;;;;;;1.95;1.80;;;;;;;;;;4994243;28;20122;-53
2023/04/13 12:53:39;;;;;;;2.33;1.60;;;;;;;;;;4992978;28;20038;-53
2023/04/13 12:56:05;;;;;;;4.15;1.98;;;;;;;;;;4994126;28;20084;-53
2023/04/13 12:58:30;;;;;;;1.80;1.70;;;;;;;;;;4994082;28;20066;-53
2023/04/13 13:01:01;;;;;;;2.10;1.90;;;;;;;;;;4992947;28;20026;-53
2023/04/13 13:03:26;;;;;;;2.38;2.20;;;;;;;;;;4976756;28;20039;-53
2023/04/13 13:05:51;;;;;;;4.30;2.78;;;;;;;;;;4994404;28;20022;-53
2023/04/13 13:08:17;;;;;;;3.35;2.75;;;;;;;;;;4994706;28;20536;-53
2023/04/13 13:10:42;;;;;;;2.63;2.03;;;;;;;;;;4994295;28;20117;-53
2023/04/13 13:13:07;;;;;;;3.75;2.35;;;;;;;;;;4994271;28;20054;-53
2023/04/13 13:15:33;;;;;;;4.80;2.83;;;;;;;;;;4994344;28;20530;-53
2023/04/13 13:18:01;;;;;;;2.95;1.90;;;;;;;;;;4970217;28;20034;-53
2023/04/13 13:20:27;;;;;;;2.40;1.65;;;;;;;;;;4981699;28;20026;-53
2023/04/13 13:22:52;;;;;;;2.28;1.65;;;;;;;;;;4975442;28;20026;-53
2023/04/13 13:25:17;;;;;;;2.40;1.90;;;;;;;;;;4975012;28;20457;-53
2023/04/13 13:27:43;;;;;;;3.08;2.78;;;;;;;;;;4996746;28;20073;-53
2023/04/13 13:30:08;;;;;;;3.80;2.30;;;;;;;;;;4992846;28;20109;-53
2023/04/13 13:32:35;;;;;;;2.38;1.95;;;;;;;;;;4976811;28;20035;-53
2023/04/13 13:35:01;;;;;;;7.20;4.22;;;;;;;;;;4974058;28;20027;-54
2023/04/13 13:37:26;;;;;;;4.25;2.80;;;;;;;;;;4983173;28;20053;-55
2023/04/13 13:39:52;;;;;;;2.25;2.05;;;;;;;;;;4992734;28;20113;-53
2023/04/13 13:42:17;;;;;;;2.10;2.00;;;;;;;;;;4994510;28;20362;-53
2023/04/13 13:44:43;;;;;;;2.35;2.15;;;;;;;;;;4994259;28;20034;-53
2023/04/13 13:47:08;;;;;;;3.10;1.90;;;;;;;;;;4976233;28;20080;-53
2023/04/13 13:49:37;;;;;;;2.72;2.10;;;;;;;;;;4975677;28;20440;-53
2023/04/13 13:52:12;;;;;;;4.82;2.65;;;;;;;;;;4982831;28;20388;-59
2023/04/13 13:54:48;;;;;;;2.60;2.40;;;;;;;;;;4992874;28;20432;-60
2023/04/13 13:57:14;;;;;;;2.85;2.53;;;;;;;;;;4992957;28;20038;-60
2023/04/13 13:59:39;;;;;;;3.08;2.78;;;;;;;;;;4995289;28;20023;-60
2023/04/13 14:02:09;;;;;;;3.30;2.38;;;;;;;;;;4995860;28;20022;-60
2023/04/13 14:04:35;;;;;;;2.80;2.60;;;;;;;;;;4997191;28;20073;-60
2023/04/13 14:07:01;;;;;;;3.35;2.90;;;;;;;;;;4997226;28;20074;-60
2023/04/13 14:09:26;;;;;;;3.20;2.83;;;;;;;;;;4997748;28;20034;-60
2023/04/13 14:11:53;;;;;;;2.75;2.55;;;;;;;;;;4997462;28;20083;-60
2023/04/13 14:14:18;;;;;;;3.28;2.97;;;;;;;;;;4997513;28;20499;-60
2023/04/13 14:16:44;;;;;;;2.65;2.53;;;;;;;;;;4997575;28;20030;-53
2023/04/13 14:19:10;;;;;;;3.22;2.58;;;;;;;;;;4997326;28;20132;-53
2023/04/13 14:21:41;;;;;;;3.35;2.78;;;;;;;;;;4997539;28;20034;-53
2023/04/13 14:24:06;;;;;;;3.65;3.22;;;;;;;;;;4997191;28;20109;-53
2023/04/13 14:26:37;;;;;;;3.45;3.15;;;;;;;;;;4980078;28;20066;-53
2023/04/13 14:29:02;;;;;;;;;;;;;;;;;;4996757;28;20062;-59
2023/04/13 14:34:11;;;;;;;5.10;3.65;;;;;;;;;;5030955;23;20351;-60
2023/04/13 14:43:33;;;;;;;6.30;3.65;;;;;;;;;;5046420;22;20115;-53
2023/04/13 14:45:58;;;;;;;4.13;3.70;;;;;;;;;;5036737;28;20025;-53
2023/04/13 14:48:23;;;;;;;5.25;3.85;;;;;;;;;;5002018;28;20124;-54